sensor_id;sensor_type;location;lat;lon;timestamp;P1;durP1;ratioP1;P2;durP2;ratioP2
64936;SDS011;51452;47.698;19.050;2023-08-07T00:02:02;1.50;;;0.50;;
64936;SDS011;51452;47.698;19.050;2023-08-07T00:04:31;0.40;;;0.40;;
64936;SDS011;51452;47.698;19.050;2023-08-07T00:07:00;1.08;;;0.47;;
64936;SDS011;51452;47.698;19.050;2023-08-07T00:09:25;0.30;;;0.30;;
64936;SDS011;51452;47.698;19.050;2023-08-07T00:11:51;0.30;;;0.30;;
64936;SDS011;51452;47.698;19.050;2023-08-07T00:14:16;1.10;;;0.30;;
64936;SDS011;51452;47.698;19.050;2023-08-07T00:16:42;0.40;;;0.40;;
64936;SDS011;51452;47.698;19.050;2023-08-07T00:19:10;0.40;;;0.40;;
64936;SDS011;51452;47.698;19.050;2023-08-07T00:21:38;2.38;;;0.45;;
64936;SDS011;51452;47.698;19.050;2023-08-07T00:24:04;1.10;;;0.43;;
64936;SDS011;51452;47.698;19.050;2023-08-07T00:26:30;3.15;;;0.40;;
64936;SDS011;51452;47.698;19.050;2023-08-07T00:29:05;0.47;;;0.43;;
64936;SDS011;51452;47.698;19.050;2023-08-07T00:31:31;0.40;;;0.40;;
64936;SDS011;51452;47.698;19.050;2023-08-07T00:33:59;0.40;;;0.20;;
64936;SDS011;51452;47.698;19.050;2023-08-07T00:36:32;2.13;;;0.30;;
64936;SDS011;51452;47.698;19.050;2023-08-07T00:39:00;0.63;;;0.30;;
64936;SDS011;51452;47.698;19.050;2023-08-07T00:41:26;0.40;;;0.30;;
64936;SDS011;51452;47.698;19.050;2023-08-07T00:43:51;0.63;;;0.40;;
64936;SDS011;51452;47.698;19.050;2023-08-07T00:46:17;0.30;;;0.30;;
64936;SDS011;51452;47.698;19.050;2023-08-07T00:48:49;0.60;;;0.45;;
64936;SDS011;51452;47.698;19.050;2023-08-07T00:51:16;0.40;;;0.25;;
64936;SDS011;51452;47.698;19.050;2023-08-07T00:53:42;0.20;;;0.20;;
64936;SDS011;51452;47.698;19.050;2023-08-07T00:56:12;0.55;;;0.40;;
64936;SDS011;51452;47.698;19.050;2023-08-07T00:58:37;0.82;;;0.38;;
64936;SDS011;51452;47.698;19.050;2023-08-07T01:01:04;0.30;;;0.30;;
64936;SDS011;51452;47.698;19.050;2023-08-07T01:03:30;1.38;;;0.73;;
64936;SDS011;51452;47.698;19.050;2023-08-07T01:05:56;0.30;;;0.30;;
64936;SDS011;51452;47.698;19.050;2023-08-07T01:08:22;0.30;;;0.30;;
64936;SDS011;51452;47.698;19.050;2023-08-07T01:13:43;0.70;;;0.40;;
64936;SDS011;51452;47.698;19.050;2023-08-07T01:16:14;0.40;;;0.32;;
64936;SDS011;51452;47.698;19.050;2023-08-07T01:18:52;0.20;;;0.20;;
64936;SDS011;51452;47.698;19.050;2023-08-07T01:21:22;1.05;;;0.38;;
64936;SDS011;51452;47.698;19.050;2023-08-07T01:23:48;0.40;;;0.40;;
64936;SDS011;51452;47.698;19.050;2023-08-07T01:26:17;0.30;;;0.30;;
64936;SDS011;51452;47.698;19.050;2023-08-07T01:31:42;1.80;;;0.40;;
64936;SDS011;51452;47.698;19.050;2023-08-07T01:34:12;0.20;;;0.20;;
64936;SDS011;51452;47.698;19.050;2023-08-07T01:36:44;0.30;;;0.30;;
64936;SDS011;51452;47.698;19.050;2023-08-07T01:39:11;2.08;;;0.30;;
64936;SDS011;51452;47.698;19.050;2023-08-07T01:41:40;0.30;;;0.20;;
64936;SDS011;51452;47.698;19.050;2023-08-07T01:44:06;1.52;;;0.50;;
64936;SDS011;51452;47.698;19.050;2023-08-07T01:46:32;0.40;;;0.30;;
64936;SDS011;51452;47.698;19.050;2023-08-07T01:48:58;4.68;;;0.38;;
64936;SDS011;51452;47.698;19.050;2023-08-07T01:51:23;1.20;;;0.30;;
64936;SDS011;51452;47.698;19.050;2023-08-07T01:53:49;0.35;;;0.30;;
64936;SDS011;51452;47.698;19.050;2023-08-07T01:56:14;0.40;;;0.30;;
64936;SDS011;51452;47.698;19.050;2023-08-07T01:58:40;0.57;;;0.30;;
64936;SDS011;51452;47.698;19.050;2023-08-07T02:01:05;1.27;;;0.30;;
64936;SDS011;51452;47.698;19.050;2023-08-07T02:03:31;0.50;;;0.30;;
64936;SDS011;51452;47.698;19.050;2023-08-07T02:08:45;1.00;;;0.30;;
64936;SDS011;51452;47.698;19.050;2023-08-07T02:11:10;0.45;;;0.20;;
64936;SDS011;51452;47.698;19.050;2023-08-07T02:13:36;0.20;;;0.20;;
64936;SDS011;51452;47.698;19.050;2023-08-07T02:16:03;0.90;;;0.20;;
64936;SDS011;51452;47.698;19.050;2023-08-07T02:18:32;0.80;;;0.30;;
64936;SDS011;51452;47.698;19.050;2023-08-07T02:20:57;0.55;;;0.40;;
64936;SDS011;51452;47.698;19.050;2023-08-07T02:23:23;0.50;;;0.22;;
64936;SDS011;51452;47.698;19.050;2023-08-07T02:25:51;0.20;;;0.20;;
64936;SDS011;51452;47.698;19.050;2023-08-07T02:28:17;0.50;;;0.20;;
64936;SDS011;51452;47.698;19.050;2023-08-07T02:30:45;0.50;;;0.50;;
64936;SDS011;51452;47.698;19.050;2023-08-07T02:33:16;0.40;;;0.30;;
64936;SDS011;51452;47.698;19.050;2023-08-07T02:35:41;3.13;;;0.32;;
64936;SDS011;51452;47.698;19.050;2023-08-07T02:38:10;0.40;;;0.38;;
64936;SDS011;51452;47.698;19.050;2023-08-07T02:40:36;0.50;;;0.40;;
64936;SDS011;51452;47.698;19.050;2023-08-07T02:43:01;0.50;;;0.50;;
64936;SDS011;51452;47.698;19.050;2023-08-07T02:45:26;0.80;;;0.38;;
64936;SDS011;51452;47.698;19.050;2023-08-07T02:47:52;10.60;;;0.50;;
64936;SDS011;51452;47.698;19.050;2023-08-07T02:50:17;1.00;;;0.30;;
64936;SDS011;51452;47.698;19.050;2023-08-07T02:52:46;0.30;;;0.30;;
64936;SDS011;51452;47.698;19.050;2023-08-07T02:55:14;3.72;;;0.30;;
64936;SDS011;51452;47.698;19.050;2023-08-07T02:57:39;2.67;;;0.55;;
64936;SDS011;51452;47.698;19.050;2023-08-07T03:00:11;1.00;;;0.52;;
64936;SDS011;51452;47.698;19.050;2023-08-07T03:02:39;1.42;;;0.50;;
64936;SDS011;51452;47.698;19.050;2023-08-07T03:05:05;4.32;;;0.43;;
64936;SDS011;51452;47.698;19.050;2023-08-07T03:07:30;0.65;;;0.32;;
64936;SDS011;51452;47.698;19.050;2023-08-07T03:09:58;0.55;;;0.38;;
64936;SDS011;51452;47.698;19.050;2023-08-07T03:12:24;0.90;;;0.32;;
64936;SDS011;51452;47.698;19.050;2023-08-07T03:14:52;1.08;;;0.50;;
64936;SDS011;51452;47.698;19.050;2023-08-07T03:17:17;0.93;;;0.40;;
64936;SDS011;51452;47.698;19.050;2023-08-07T03:19:43;0.65;;;0.40;;
64936;SDS011;51452;47.698;19.050;2023-08-07T03:22:09;0.60;;;0.50;;
64936;SDS011;51452;47.698;19.050;2023-08-07T03:24:34;1.23;;;0.40;;
64936;SDS011;51452;47.698;19.050;2023-08-07T03:27:00;0.73;;;0.40;;
64936;SDS011;51452;47.698;19.050;2023-08-07T03:29:25;0.43;;;0.40;;
64936;SDS011;51452;47.698;19.050;2023-08-07T03:31:58;1.27;;;0.40;;
64936;SDS011;51452;47.698;19.050;2023-08-07T03:34:24;1.95;;;0.50;;
64936;SDS011;51452;47.698;19.050;2023-08-07T03:36:53;1.10;;;0.40;;
64936;SDS011;51452;47.698;19.050;2023-08-07T03:39:21;1.17;;;0.60;;
64936;SDS011;51452;47.698;19.050;2023-08-07T03:41:47;1.77;;;0.60;;
64936;SDS011;51452;47.698;19.050;2023-08-07T03:44:14;0.85;;;0.70;;
64936;SDS011;51452;47.698;19.050;2023-08-07T03:49:35;1.70;;;0.50;;
64936;SDS011;51452;47.698;19.050;2023-08-07T03:52:06;1.85;;;0.40;;
64936;SDS011;51452;47.698;19.050;2023-08-07T03:54:32;0.95;;;0.40;;
64936;SDS011;51452;47.698;19.050;2023-08-07T03:57:07;0.60;;;0.40;;
64936;SDS011;51452;47.698;19.050;2023-08-07T03:59:33;2.38;;;0.50;;
64936;SDS011;51452;47.698;19.050;2023-08-07T04:02:02;1.60;;;0.50;;
64936;SDS011;51452;47.698;19.050;2023-08-07T04:04:28;0.85;;;0.40;;
64936;SDS011;51452;47.698;19.050;2023-08-07T04:07:09;0.70;;;0.40;;
64936;SDS011;51452;47.698;19.050;2023-08-07T04:09:38;0.65;;;0.50;;
64936;SDS011;51452;47.698;19.050;2023-08-07T04:12:06;2.45;;;0.63;;
64936;SDS011;51452;47.698;19.050;2023-08-07T04:14:32;1.50;;;0.50;;
64936;SDS011;51452;47.698;19.050;2023-08-07T04:17:00;0.93;;;0.40;;
64936;SDS011;51452;47.698;19.050;2023-08-07T04:19:45;1.25;;;0.77;;
64936;SDS011;51452;47.698;19.050;2023-08-07T04:22:11;1.85;;;0.60;;
64936;SDS011;51452;47.698;19.050;2023-08-07T04:24:37;0.80;;;0.60;;
64936;SDS011;51452;47.698;19.050;2023-08-07T04:27:05;2.10;;;0.57;;
64936;SDS011;51452;47.698;19.050;2023-08-07T04:29:33;1.65;;;0.60;;
64936;SDS011;51452;47.698;19.050;2023-08-07T04:31:58;0.55;;;0.50;;
64936;SDS011;51452;47.698;19.050;2023-08-07T04:34:27;2.03;;;0.60;;
64936;SDS011;51452;47.698;19.050;2023-08-07T04:36:53;1.15;;;0.40;;
64936;SDS011;51452;47.698;19.050;2023-08-07T04:39:21;2.88;;;0.60;;
64936;SDS011;51452;47.698;19.050;2023-08-07T04:41:49;0.50;;;0.50;;
64936;SDS011;51452;47.698;19.050;2023-08-07T04:44:17;2.05;;;0.50;;
64936;SDS011;51452;47.698;19.050;2023-08-07T04:46:43;0.65;;;0.52;;
64936;SDS011;51452;47.698;19.050;2023-08-07T04:49:08;0.75;;;0.40;;
64936;SDS011;51452;47.698;19.050;2023-08-07T04:51:34;0.80;;;0.50;;
64936;SDS011;51452;47.698;19.050;2023-08-07T04:54:00;1.00;;;0.50;;
64936;SDS011;51452;47.698;19.050;2023-08-07T04:56:25;2.10;;;0.63;;
64936;SDS011;51452;47.698;19.050;2023-08-07T04:58:56;1.17;;;0.52;;
64936;SDS011;51452;47.698;19.050;2023-08-07T05:01:21;0.93;;;0.40;;
64936;SDS011;51452;47.698;19.050;2023-08-07T05:03:47;0.60;;;0.50;;
64936;SDS011;51452;47.698;19.050;2023-08-07T05:06:12;1.00;;;0.70;;
64936;SDS011;51452;47.698;19.050;2023-08-07T05:08:41;1.05;;;0.60;;
64936;SDS011;51452;47.698;19.050;2023-08-07T05:11:09;1.50;;;0.60;;
64936;SDS011;51452;47.698;19.050;2023-08-07T05:13:55;0.80;;;0.60;;
64936;SDS011;51452;47.698;19.050;2023-08-07T05:16:27;3.97;;;0.60;;
64936;SDS011;51452;47.698;19.050;2023-08-07T05:18:52;1.23;;;0.60;;
64936;SDS011;51452;47.698;19.050;2023-08-07T05:21:20;1.90;;;0.70;;
64936;SDS011;51452;47.698;19.050;2023-08-07T05:23:45;1.30;;;0.60;;
64936;SDS011;51452;47.698;19.050;2023-08-07T05:26:16;0.85;;;0.50;;
64936;SDS011;51452;47.698;19.050;2023-08-07T05:28:44;2.22;;;0.65;;
64936;SDS011;51452;47.698;19.050;2023-08-07T05:31:12;1.15;;;0.63;;
64936;SDS011;51452;47.698;19.050;2023-08-07T05:33:38;1.70;;;0.63;;
64936;SDS011;51452;47.698;19.050;2023-08-07T05:36:07;3.80;;;0.65;;
64936;SDS011;51452;47.698;19.050;2023-08-07T05:38:32;1.77;;;0.82;;
64936;SDS011;51452;47.698;19.050;2023-08-07T05:41:01;1.30;;;0.73;;
64936;SDS011;51452;47.698;19.050;2023-08-07T05:43:26;3.13;;;0.80;;
64936;SDS011;51452;47.698;19.050;2023-08-07T05:45:54;3.40;;;0.70;;
64936;SDS011;51452;47.698;19.050;2023-08-07T05:48:20;1.95;;;0.63;;
64936;SDS011;51452;47.698;19.050;2023-08-07T05:50:47;1.27;;;0.60;;
64936;SDS011;51452;47.698;19.050;2023-08-07T05:53:15;2.78;;;0.70;;
64936;SDS011;51452;47.698;19.050;2023-08-07T05:55:41;2.10;;;0.52;;
64936;SDS011;51452;47.698;19.050;2023-08-07T05:58:07;1.15;;;0.60;;
64936;SDS011;51452;47.698;19.050;2023-08-07T06:00:44;1.00;;;0.60;;
64936;SDS011;51452;47.698;19.050;2023-08-07T06:03:33;0.70;;;0.60;;
64936;SDS011;51452;47.698;19.050;2023-08-07T06:05:59;1.55;;;0.65;;
64936;SDS011;51452;47.698;19.050;2023-08-07T06:08:30;3.38;;;0.63;;
64936;SDS011;51452;47.698;19.050;2023-08-07T06:10:59;0.90;;;0.60;;
64936;SDS011;51452;47.698;19.050;2023-08-07T06:13:28;2.97;;;0.80;;
64936;SDS011;51452;47.698;19.050;2023-08-07T06:15:54;1.88;;;0.68;;
64936;SDS011;51452;47.698;19.050;2023-08-07T06:18:19;1.25;;;0.50;;
64936;SDS011;51452;47.698;19.050;2023-08-07T06:20:45;1.10;;;0.63;;
64936;SDS011;51452;47.698;19.050;2023-08-07T06:23:11;2.05;;;0.60;;
64936;SDS011;51452;47.698;19.050;2023-08-07T06:25:37;1.10;;;0.70;;
64936;SDS011;51452;47.698;19.050;2023-08-07T06:28:02;0.82;;;0.60;;
64936;SDS011;51452;47.698;19.050;2023-08-07T06:30:28;1.85;;;1.38;;
64936;SDS011;51452;47.698;19.050;2023-08-07T06:32:53;3.28;;;0.70;;
64936;SDS011;51452;47.698;19.050;2023-08-07T06:35:19;1.45;;;0.70;;
64936;SDS011;51452;47.698;19.050;2023-08-07T06:37:44;3.58;;;0.70;;
64936;SDS011;51452;47.698;19.050;2023-08-07T06:40:10;2.55;;;0.98;;
64936;SDS011;51452;47.698;19.050;2023-08-07T06:42:35;1.92;;;0.55;;
64936;SDS011;51452;47.698;19.050;2023-08-07T06:45:01;0.93;;;0.50;;
64936;SDS011;51452;47.698;19.050;2023-08-07T06:47:26;1.55;;;0.60;;
64936;SDS011;51452;47.698;19.050;2023-08-07T06:49:51;1.13;;;0.70;;
64936;SDS011;51452;47.698;19.050;2023-08-07T06:52:17;1.95;;;0.60;;
64936;SDS011;51452;47.698;19.050;2023-08-07T06:54:42;0.98;;;0.50;;
64936;SDS011;51452;47.698;19.050;2023-08-07T06:57:08;0.80;;;0.60;;
64936;SDS011;51452;47.698;19.050;2023-08-07T06:59:33;0.95;;;0.52;;
64936;SDS011;51452;47.698;19.050;2023-08-07T07:01:59;1.73;;;0.80;;
64936;SDS011;51452;47.698;19.050;2023-08-07T07:04:24;1.17;;;0.52;;
64936;SDS011;51452;47.698;19.050;2023-08-07T07:06:49;0.82;;;0.52;;
64936;SDS011;51452;47.698;19.050;2023-08-07T07:09:15;2.95;;;0.70;;
64936;SDS011;51452;47.698;19.050;2023-08-07T07:11:41;1.90;;;0.50;;
64936;SDS011;51452;47.698;19.050;2023-08-07T07:14:07;0.70;;;0.50;;
64936;SDS011;51452;47.698;19.050;2023-08-07T07:16:32;1.40;;;0.60;;
64936;SDS011;51452;47.698;19.050;2023-08-07T07:18:58;0.40;;;0.40;;
64936;SDS011;51452;47.698;19.050;2023-08-07T07:21:24;0.90;;;0.50;;
64936;SDS011;51452;47.698;19.050;2023-08-07T07:23:50;0.73;;;0.50;;
64936;SDS011;51452;47.698;19.050;2023-08-07T07:26:17;2.58;;;0.60;;
64936;SDS011;51452;47.698;19.050;2023-08-07T07:28:42;1.17;;;0.40;;
64936;SDS011;51452;47.698;19.050;2023-08-07T07:31:07;4.40;;;0.70;;
64936;SDS011;51452;47.698;19.050;2023-08-07T07:33:36;0.57;;;0.43;;
64936;SDS011;51452;47.698;19.050;2023-08-07T07:36:02;0.43;;;0.40;;
64936;SDS011;51452;47.698;19.050;2023-08-07T07:38:28;0.47;;;0.45;;
64936;SDS011;51452;47.698;19.050;2023-08-07T07:40:53;3.85;;;0.80;;
64936;SDS011;51452;47.698;19.050;2023-08-07T07:43:21;0.93;;;0.43;;
64936;SDS011;51452;47.698;19.050;2023-08-07T07:45:48;0.75;;;0.40;;
64936;SDS011;51452;47.698;19.050;2023-08-07T07:48:13;0.80;;;0.50;;
64936;SDS011;51452;47.698;19.050;2023-08-07T07:50:39;0.30;;;0.30;;
64936;SDS011;51452;47.698;19.050;2023-08-07T07:53:04;3.63;;;0.63;;
64936;SDS011;51452;47.698;19.050;2023-08-07T07:55:29;4.15;;;0.55;;
64936;SDS011;51452;47.698;19.050;2023-08-07T07:57:55;0.30;;;0.30;;
64936;SDS011;51452;47.698;19.050;2023-08-07T08:00:21;1.65;;;0.40;;
64936;SDS011;51452;47.698;19.050;2023-08-07T08:02:51;1.13;;;0.52;;
64936;SDS011;51452;47.698;19.050;2023-08-07T08:05:16;0.80;;;0.40;;
64936;SDS011;51452;47.698;19.050;2023-08-07T08:07:42;0.70;;;0.50;;
64936;SDS011;51452;47.698;19.050;2023-08-07T08:10:08;0.80;;;0.43;;
64936;SDS011;51452;47.698;19.050;2023-08-07T08:12:37;0.20;;;0.20;;
64936;SDS011;51452;47.698;19.050;2023-08-07T08:15:03;0.30;;;0.28;;
64936;SDS011;51452;47.698;19.050;2023-08-07T08:17:28;1.48;;;0.32;;
64936;SDS011;51452;47.698;19.050;2023-08-07T08:19:54;1.30;;;0.25;;
64936;SDS011;51452;47.698;19.050;2023-08-07T08:22:19;0.75;;;0.30;;
64936;SDS011;51452;47.698;19.050;2023-08-07T08:24:45;0.30;;;0.20;;
64936;SDS011;51452;47.698;19.050;2023-08-07T08:27:10;0.77;;;0.28;;
64936;SDS011;51452;47.698;19.050;2023-08-07T08:29:36;0.20;;;0.20;;
64936;SDS011;51452;47.698;19.050;2023-08-07T08:32:01;1.13;;;0.32;;
64936;SDS011;51452;47.698;19.050;2023-08-07T08:34:27;1.10;;;0.40;;
64936;SDS011;51452;47.698;19.050;2023-08-07T08:36:52;0.20;;;0.20;;
64936;SDS011;51452;47.698;19.050;2023-08-07T08:39:21;0.60;;;0.30;;
64936;SDS011;51452;47.698;19.050;2023-08-07T08:41:46;0.68;;;0.20;;
64936;SDS011;51452;47.698;19.050;2023-08-07T08:44:15;0.73;;;0.30;;
64936;SDS011;51452;47.698;19.050;2023-08-07T08:46:44;0.30;;;0.28;;
64936;SDS011;51452;47.698;19.050;2023-08-07T08:49:13;2.35;;;0.32;;
64936;SDS011;51452;47.698;19.050;2023-08-07T08:51:46;0.28;;;0.25;;
64936;SDS011;51452;47.698;19.050;2023-08-07T08:54:11;0.20;;;0.17;;
64936;SDS011;51452;47.698;19.050;2023-08-07T08:56:38;0.25;;;0.20;;
64936;SDS011;51452;47.698;19.050;2023-08-07T08:59:04;1.75;;;0.10;;
64936;SDS011;51452;47.698;19.050;2023-08-07T09:01:29;1.02;;;0.30;;
64936;SDS011;51452;47.698;19.050;2023-08-07T09:03:55;0.20;;;0.20;;
64936;SDS011;51452;47.698;19.050;2023-08-07T09:06:24;0.30;;;0.30;;
64936;SDS011;51452;47.698;19.050;2023-08-07T09:08:55;0.57;;;0.20;;
64936;SDS011;51452;47.698;19.050;2023-08-07T09:11:23;1.42;;;0.20;;
64936;SDS011;51452;47.698;19.050;2023-08-07T09:13:49;2.72;;;0.30;;
64936;SDS011;51452;47.698;19.050;2023-08-07T09:16:14;0.20;;;0.20;;
64936;SDS011;51452;47.698;19.050;2023-08-07T09:18:40;0.28;;;0.20;;
64936;SDS011;51452;47.698;19.050;2023-08-07T09:21:07;0.30;;;0.10;;
64936;SDS011;51452;47.698;19.050;2023-08-07T09:23:32;0.15;;;0.15;;
64936;SDS011;51452;47.698;19.050;2023-08-07T09:25:58;1.08;;;0.20;;
64936;SDS011;51452;47.698;19.050;2023-08-07T09:28:25;0.50;;;0.30;;
64936;SDS011;51452;47.698;19.050;2023-08-07T09:30:52;0.57;;;0.20;;
64936;SDS011;51452;47.698;19.050;2023-08-07T09:33:27;0.10;;;0.10;;
64936;SDS011;51452;47.698;19.050;2023-08-07T09:35:58;0.55;;;0.20;;
64936;SDS011;51452;47.698;19.050;2023-08-07T09:38:24;1.05;;;0.20;;
64936;SDS011;51452;47.698;19.050;2023-08-07T09:40:53;0.43;;;0.20;;
64936;SDS011;51452;47.698;19.050;2023-08-07T09:43:21;0.50;;;0.25;;
64936;SDS011;51452;47.698;19.050;2023-08-07T09:45:47;1.00;;;0.20;;
64936;SDS011;51452;47.698;19.050;2023-08-07T09:48:22;1.10;;;0.30;;
64936;SDS011;51452;47.698;19.050;2023-08-07T09:50:48;1.50;;;0.20;;
64936;SDS011;51452;47.698;19.050;2023-08-07T09:53:14;0.95;;;0.30;;
64936;SDS011;51452;47.698;19.050;2023-08-07T09:55:39;0.15;;;0.10;;
64936;SDS011;51452;47.698;19.050;2023-08-07T09:58:05;0.20;;;0.20;;
64936;SDS011;51452;47.698;19.050;2023-08-07T10:00:35;0.52;;;0.20;;
64936;SDS011;51452;47.698;19.050;2023-08-07T10:03:01;2.17;;;0.20;;
64936;SDS011;51452;47.698;19.050;2023-08-07T10:05:27;0.30;;;0.20;;
64936;SDS011;51452;47.698;19.050;2023-08-07T10:07:52;0.52;;;0.20;;
64936;SDS011;51452;47.698;19.050;2023-08-07T10:10:19;3.00;;;0.20;;
64936;SDS011;51452;47.698;19.050;2023-08-07T10:12:45;1.40;;;0.20;;
64936;SDS011;51452;47.698;19.050;2023-08-07T10:15:13;1.20;;;0.20;;
64936;SDS011;51452;47.698;19.050;2023-08-07T10:17:39;0.10;;;0.10;;
64936;SDS011;51452;47.698;19.050;2023-08-07T10:20:08;0.80;;;0.10;;
64936;SDS011;51452;47.698;19.050;2023-08-07T10:22:38;0.10;;;0.10;;
64936;SDS011;51452;47.698;19.050;2023-08-07T10:25:05;0.20;;;0.20;;
64936;SDS011;51452;47.698;19.050;2023-08-07T10:27:33;4.50;;;0.25;;
64936;SDS011;51452;47.698;19.050;2023-08-07T10:30:03;0.20;;;0.20;;
64936;SDS011;51452;47.698;19.050;2023-08-07T10:32:41;0.10;;;0.10;;
64936;SDS011;51452;47.698;19.050;2023-08-07T10:35:08;0.88;;;0.20;;
64936;SDS011;51452;47.698;19.050;2023-08-07T10:40:05;0.30;;;0.22;;
64936;SDS011;51452;47.698;19.050;2023-08-07T10:45:36;2.55;;;0.20;;
64936;SDS011;51452;47.698;19.050;2023-08-07T10:48:10;0.10;;;0.10;;
64936;SDS011;51452;47.698;19.050;2023-08-07T10:53:31;1.08;;;0.20;;
64936;SDS011;51452;47.698;19.050;2023-08-07T10:55:57;0.28;;;0.25;;
64936;SDS011;51452;47.698;19.050;2023-08-07T10:58:24;1.00;;;0.20;;
64936;SDS011;51452;47.698;19.050;2023-08-07T11:01:15;0.17;;;0.13;;
64936;SDS011;51452;47.698;19.050;2023-08-07T11:03:40;0.40;;;0.20;;
64936;SDS011;51452;47.698;19.050;2023-08-07T11:06:09;0.10;;;0.10;;
64936;SDS011;51452;47.698;19.050;2023-08-07T11:08:40;0.10;;;0.10;;
64936;SDS011;51452;47.698;19.050;2023-08-07T11:11:05;1.30;;;0.30;;
64936;SDS011;51452;47.698;19.050;2023-08-07T11:13:32;0.30;;;0.30;;
64936;SDS011;51452;47.698;19.050;2023-08-07T11:15:58;1.55;;;0.20;;
64936;SDS011;51452;47.698;19.050;2023-08-07T11:18:28;0.25;;;0.25;;
64936;SDS011;51452;47.698;19.050;2023-08-07T11:20:55;0.28;;;0.20;;
64936;SDS011;51452;47.698;19.050;2023-08-07T11:23:30;0.52;;;0.32;;
64936;SDS011;51452;47.698;19.050;2023-08-07T11:28:21;1.13;;;0.30;;
64936;SDS011;51452;47.698;19.050;2023-08-07T11:30:48;0.20;;;0.20;;
64936;SDS011;51452;47.698;19.050;2023-08-07T11:33:17;0.55;;;0.20;;
64936;SDS011;51452;47.698;19.050;2023-08-07T11:35:45;1.08;;;0.28;;
64936;SDS011;51452;47.698;19.050;2023-08-07T11:38:12;0.85;;;0.30;;
64936;SDS011;51452;47.698;19.050;2023-08-07T11:40:37;2.20;;;0.40;;
64936;SDS011;51452;47.698;19.050;2023-08-07T11:43:03;0.22;;;0.20;;
64936;SDS011;51452;47.698;19.050;2023-08-07T11:45:29;2.63;;;0.30;;
64936;SDS011;51452;47.698;19.050;2023-08-07T11:47:55;1.27;;;0.25;;
64936;SDS011;51452;47.698;19.050;2023-08-07T11:50:22;0.52;;;0.30;;
64936;SDS011;51452;47.698;19.050;2023-08-07T11:52:47;1.25;;;0.20;;
64936;SDS011;51452;47.698;19.050;2023-08-07T11:55:17;1.50;;;0.28;;
64936;SDS011;51452;47.698;19.050;2023-08-07T11:57:44;1.73;;;0.32;;
64936;SDS011;51452;47.698;19.050;2023-08-07T12:00:12;0.43;;;0.40;;
64936;SDS011;51452;47.698;19.050;2023-08-07T12:02:44;0.70;;;0.38;;
64936;SDS011;51452;47.698;19.050;2023-08-07T12:05:12;1.42;;;0.30;;
64936;SDS011;51452;47.698;19.050;2023-08-07T12:07:39;0.63;;;0.30;;
64936;SDS011;51452;47.698;19.050;2023-08-07T12:10:08;0.30;;;0.20;;
64936;SDS011;51452;47.698;19.050;2023-08-07T12:12:36;0.22;;;0.22;;
64936;SDS011;51452;47.698;19.050;2023-08-07T12:15:02;0.85;;;0.38;;
64936;SDS011;51452;47.698;19.050;2023-08-07T12:17:35;6.03;;;0.50;;
64936;SDS011;51452;47.698;19.050;2023-08-07T12:20:02;0.47;;;0.30;;
64936;SDS011;51452;47.698;19.050;2023-08-07T12:22:29;1.25;;;0.30;;
64936;SDS011;51452;47.698;19.050;2023-08-07T12:24:54;2.25;;;0.50;;
64936;SDS011;51452;47.698;19.050;2023-08-07T12:27:20;1.70;;;0.40;;
64936;SDS011;51452;47.698;19.050;2023-08-07T12:29:45;1.95;;;0.30;;
64936;SDS011;51452;47.698;19.050;2023-08-07T12:32:11;0.30;;;0.30;;
64936;SDS011;51452;47.698;19.050;2023-08-07T12:34:36;5.07;;;0.50;;
64936;SDS011;51452;47.698;19.050;2023-08-07T12:37:03;0.82;;;0.40;;
64936;SDS011;51452;47.698;19.050;2023-08-07T12:39:29;6.80;;;0.50;;
64936;SDS011;51452;47.698;19.050;2023-08-07T12:41:55;0.20;;;0.20;;
64936;SDS011;51452;47.698;19.050;2023-08-07T12:44:20;0.90;;;0.45;;
64936;SDS011;51452;47.698;19.050;2023-08-07T12:46:46;2.15;;;0.47;;
64936;SDS011;51452;47.698;19.050;2023-08-07T12:49:14;1.95;;;0.30;;
64936;SDS011;51452;47.698;19.050;2023-08-07T12:51:43;0.28;;;0.28;;
64936;SDS011;51452;47.698;19.050;2023-08-07T12:54:11;0.40;;;0.30;;
64936;SDS011;51452;47.698;19.050;2023-08-07T12:56:39;0.73;;;0.30;;
64936;SDS011;51452;47.698;19.050;2023-08-07T12:59:07;1.25;;;0.50;;
64936;SDS011;51452;47.698;19.050;2023-08-07T13:01:35;1.75;;;0.40;;
64936;SDS011;51452;47.698;19.050;2023-08-07T13:04:00;0.60;;;0.40;;
64936;SDS011;51452;47.698;19.050;2023-08-07T13:06:28;0.75;;;0.40;;
64936;SDS011;51452;47.698;19.050;2023-08-07T13:08:56;0.32;;;0.30;;
64936;SDS011;51452;47.698;19.050;2023-08-07T13:11:22;0.65;;;0.40;;
64936;SDS011;51452;47.698;19.050;2023-08-07T13:13:49;0.93;;;0.50;;
64936;SDS011;51452;47.698;19.050;2023-08-07T13:16:15;0.50;;;0.38;;
64936;SDS011;51452;47.698;19.050;2023-08-07T13:18:41;0.30;;;0.30;;
64936;SDS011;51452;47.698;19.050;2023-08-07T13:21:06;0.32;;;0.28;;
64936;SDS011;51452;47.698;19.050;2023-08-07T13:23:31;0.85;;;0.50;;
64936;SDS011;51452;47.698;19.050;2023-08-07T13:25:57;3.85;;;0.50;;
64936;SDS011;51452;47.698;19.050;2023-08-07T13:28:23;0.40;;;0.38;;
64936;SDS011;51452;47.698;19.050;2023-08-07T13:30:48;0.30;;;0.22;;
64936;SDS011;51452;47.698;19.050;2023-08-07T13:33:18;0.70;;;0.50;;
64936;SDS011;51452;47.698;19.050;2023-08-07T13:35:45;1.45;;;0.47;;
64936;SDS011;51452;47.698;19.050;2023-08-07T13:38:10;0.70;;;0.43;;
64936;SDS011;51452;47.698;19.050;2023-08-07T13:40:41;0.75;;;0.55;;
64936;SDS011;51452;47.698;19.050;2023-08-07T13:43:07;0.68;;;0.50;;
64936;SDS011;51452;47.698;19.050;2023-08-07T13:45:34;0.88;;;0.47;;
64936;SDS011;51452;47.698;19.050;2023-08-07T13:48:00;0.30;;;0.30;;
64936;SDS011;51452;47.698;19.050;2023-08-07T13:50:27;2.58;;;0.50;;
64936;SDS011;51452;47.698;19.050;2023-08-07T13:52:58;0.93;;;0.50;;
64936;SDS011;51452;47.698;19.050;2023-08-07T13:55:24;1.80;;;0.60;;
64936;SDS011;51452;47.698;19.050;2023-08-07T13:57:50;0.85;;;0.40;;
64936;SDS011;51452;47.698;19.050;2023-08-07T14:00:16;0.68;;;0.40;;
64936;SDS011;51452;47.698;19.050;2023-08-07T14:02:42;1.13;;;0.50;;
64936;SDS011;51452;47.698;19.050;2023-08-07T14:05:08;2.15;;;0.70;;
64936;SDS011;51452;47.698;19.050;2023-08-07T14:07:34;0.57;;;0.50;;
64936;SDS011;51452;47.698;19.050;2023-08-07T14:10:00;0.75;;;0.50;;
64936;SDS011;51452;47.698;19.050;2023-08-07T14:12:26;1.08;;;0.73;;
64936;SDS011;51452;47.698;19.050;2023-08-07T14:14:52;0.35;;;0.30;;
64936;SDS011;51452;47.698;19.050;2023-08-07T14:17:18;2.38;;;0.45;;
64936;SDS011;51452;47.698;19.050;2023-08-07T14:19:43;1.35;;;0.47;;
64936;SDS011;51452;47.698;19.050;2023-08-07T14:22:09;0.52;;;0.45;;
64936;SDS011;51452;47.698;19.050;2023-08-07T14:24:35;0.70;;;0.40;;
64936;SDS011;51452;47.698;19.050;2023-08-07T14:27:00;0.50;;;0.45;;
64936;SDS011;51452;47.698;19.050;2023-08-07T14:29:26;1.95;;;0.40;;
64936;SDS011;51452;47.698;19.050;2023-08-07T14:31:51;3.08;;;0.68;;
64936;SDS011;51452;47.698;19.050;2023-08-07T14:34:16;0.90;;;0.45;;
64936;SDS011;51452;47.698;19.050;2023-08-07T14:36:42;1.65;;;0.55;;
64936;SDS011;51452;47.698;19.050;2023-08-07T14:39:07;1.08;;;0.70;;
64936;SDS011;51452;47.698;19.050;2023-08-07T14:41:33;4.20;;;0.68;;
64936;SDS011;51452;47.698;19.050;2023-08-07T14:43:58;1.58;;;0.60;;
64936;SDS011;51452;47.698;19.050;2023-08-07T14:46:23;1.88;;;0.65;;
64936;SDS011;51452;47.698;19.050;2023-08-07T14:48:49;1.40;;;0.80;;
64936;SDS011;51452;47.698;19.050;2023-08-07T14:51:14;0.73;;;0.60;;
64936;SDS011;51452;47.698;19.050;2023-08-07T14:53:40;0.60;;;0.50;;
64936;SDS011;51452;47.698;19.050;2023-08-07T14:56:05;1.20;;;0.60;;